Flight Track Log - Related Links

Times and Time Zones

All times are in EDT time to prevent confusion due to time zone crossing. See the RPA3496 flight status page for this flight to view local times or setup timezone preferences in your user account.

Time Position Orientation Groundspeed Altitude Reporting Facility
EDT Latitude Longitude Course Direction KTS MPH feet Rate Location/Type
Wed 12:23:41 PM 42.3500 -71.0167 160° South 133 153 900  Level KA90
Wed 12:25:09 PM 42.3050 -71.0967 233° Southwest 213 245 3,700 2,537 Climbing Boston Center
Wed 12:26:10 PM 42.2367 -71.0997 182° South 274 315 7,200 3,312 Climbing Boston Center
Wed 12:27:14 PM 42.1572 -71.0419 152° Southeast 297 342 10,600 2,736 Climbing Boston Center
Wed 12:28:15 PM 42.0767 -70.9689 146° Southeast 345 397 12,900 2,459 Climbing Boston Center
Wed 12:29:00 PM 42.1530 -70.6098 160° South  Level FlightAware Approximate
Wed 12:29:16 PM 41.9908 -70.8889 145° Southeast 368 423 15,600  Level Boston Center
Wed 12:30:17 PM 41.9031 -70.8067 145° Southeast 394 453 17,800 2,129 Climbing Boston Center
Wed 12:31:20 PM 41.7944 -70.7856 172° South 412 474 20,000 2,323 Climbing Boston Center
Wed 12:32:21 PM 41.6981 -70.8519 207° Southwest 396 456 22,600 2,430 Climbing Boston Center
Wed 12:33:21 PM 41.6075 -70.9197 209° Southwest 381 438 24,900 2,177 Climbing Boston Center
Wed 12:34:25 PM 41.5097 -71.0244 219° Southwest 378 435 27,100 1,488 Climbing Boston Center
Wed 12:35:26 PM 41.4456 -71.1300 231° Southwest 371 427 28,000 443 Climbing Boston Center
Wed 12:36:27 PM 41.3881 -71.2247 231° Southwest 369 425 28,000  Level Boston Center
Wed 12:37:27 PM 41.3178 -71.3356 230° Southwest 389 448 28,000  Level Boston Center
Wed 12:38:31 PM 41.2397 -71.4617 231° Southwest 399 459 28,000  Level Boston Center
Wed 12:39:31 PM 41.1647 -71.5869 232° Southwest 398 458 28,000  Level Boston Center
Wed 12:40:32 PM 41.1225 -71.7150 246° West 380 437 28,000  Level Boston Center
Wed 12:41:35 PM 41.0797 -71.8417 246° West 378 435 28,000  Level Boston Center
Wed 12:42:36 PM 41.0372 -71.9669 246° West 374 430 28,000  Level Boston Center
Wed 12:43:37 PM 40.9778 -72.0708 233° Southwest 388 447 28,000  Level Boston Center
Wed 12:44:37 PM 40.8853 -72.1989 226° Southwest 397 457 28,000  Level Boston Center
Wed 12:45:40 PM 40.8092 -72.3058 227° Southwest 398 458 28,000  Level Boston Center
Wed 12:46:41 PM 40.7322 -72.4106 226° Southwest 402 463 28,000  Level Boston Center
Wed 12:47:41 PM 40.6553 -72.5186 227° Southwest 402 463 28,000 -387 Level Boston Center
Wed 12:48:45 PM 40.5789 -72.6231 226° Southwest 400 460 27,200 -1,403 Descending Boston Center
Wed 12:49:45 PM 40.5031 -72.7289 227° Southwest 400 460 25,100 -2,083 Descending Boston Center
Wed 12:50:46 PM 40.4286 -72.8294 226° Southwest 390 449 23,000 -1,935 Descending Boston Center
Wed 12:51:49 PM 40.3583 -72.9261 226° Southwest 371 427 21,100 -1,452 Descending Boston Center
Wed 12:52:50 PM 40.2753 -73.0386 226° Southwest 360 414 20,000 -545 Descending Boston Center
Wed 12:53:50 PM 40.2044 -73.1322 225° Southwest 360 414 20,000  Level Boston Center
Wed 12:54:51 PM 40.1394 -73.2225 227° Southwest 359 413 20,000  Level Boston Center
Wed 12:55:54 PM 40.0700 -73.3161 226° Southwest 359 413 20,000  Level Boston Center
Wed 12:56:54 PM 40.0014 -73.4075 226° Southwest 356 410 20,000  Level Boston Center
Wed 12:57:55 PM 39.9311 -73.5044 227° Southwest 356 410 20,000  Level Boston Center
Wed 12:58:56 PM 39.8642 -73.5994 227° Southwest 355 409 20,000  Level Boston Center
Wed 01:00:00 PM 39.8050 -73.6967 232° Southwest 349 402 20,000 -48 Level Boston Center
Wed 01:01:00 PM 39.7425 -73.7944 230° Southwest 349 402 19,900 -1,050 Descending Boston Center
Wed 01:02:00 PM 39.6692 -73.9086 230° Southwest 347 399 17,900 -1,576 Descending Boston Center
Wed 01:02:58 PM 39.6214 -73.9831 230° Southwest 334 384 16,800 -983 Descending Washington Center
Wed 01:03:56 PM 39.5642 -74.0733 231° Southwest 334 384 16,000 -403 Descending Washington Center
Wed 01:04:57 PM 39.5111 -74.1578 231° Southwest 329 379 16,000 -446 Level Washington Center
Wed 01:05:57 PM 39.4558 -74.2450 231° Southwest 329 379 15,100 -1,289 Descending Washington Center
Wed 01:06:58 PM 39.4006 -74.3347 231° Southwest 329 379 13,400 -1,613 Descending Washington Center
Wed 01:07:56 PM 39.3661 -74.4319 245° Southwest 323 372 11,900 -1,368 Descending Washington Center
Wed 01:10:11 PM 39.3833 -74.6333 276° West 264 304 9,000 -866 Descending Philadelphia TRACON
Wed 01:11:17 PM 39.4167 -74.7333 293° West 267 307 9,000  Level Philadelphia TRACON
Wed 01:12:17 PM 39.4667 -74.8000 314° West 262 302 9,000  Level Philadelphia TRACON
Wed 01:13:17 PM 39.5000 -74.8833 297° West 257 296 9,000 -397 Level Philadelphia TRACON
Wed 01:14:18 PM 39.5333 -74.9667 297° West 260 299 8,200 -1,190 Descending Philadelphia TRACON
Wed 01:15:18 PM 39.5500 -75.0500 285° West 252 290 6,600 -1,100 Descending Philadelphia TRACON
Wed 01:16:18 PM 39.5833 -75.1333 297° West 250 288 6,000 -286 Descending Philadelphia TRACON
Wed 01:17:24 PM 39.6167 -75.2333 293° West 255 293 6,000  Level Philadelphia TRACON
Wed 01:18:24 PM 39.6333 -75.3167 285° West 252 290 6,000 -48 Level Philadelphia TRACON
Wed 01:19:30 PM 39.6667 -75.3833 303° West 186 214 5,900 -750 Descending Philadelphia TRACON
Wed 01:20:24 PM 39.7167 -75.4167 333° Northwest 203 234 4,500 -1,526 Descending Philadelphia TRACON
Wed 01:21:24 PM 39.7667 -75.4167 360° North 208 239 3,000 -1,250 Descending Philadelphia TRACON
Wed 01:22:24 PM 39.8167 -75.4000 14° North 190 219 2,000 -850 Descending Philadelphia TRACON
Wed 01:23:24 PM 39.8500 -75.3500 49° Northeast 167 192 1,300 -737 Descending Philadelphia TRACON
Wed 01:24:18 PM 39.8500 -75.3167 90° East 129 148 600 -778 Descending Philadelphia TRACON
Wed 01:26:00 PM 39.8667 -75.2333 North  Level FlightAware Approximate
Wed 01:33:00 PM 39.8722 -75.2409 North  Level Estimated

Login

Don't have an account? Register now (free) for customized features, flight alerts, and more!